createdAt,value
2023-05-05T00:00:58.644Z,5.35
2023-05-05T00:04:01.648Z,5.33
2023-05-05T00:07:04.548Z,5.30
2023-05-05T00:10:07.685Z,5.26
2023-05-05T00:13:11.451Z,5.22
2023-05-05T00:16:14.631Z,5.15
2023-05-05T00:19:17.423Z,5.08
2023-05-05T00:22:20.382Z,4.98
2023-05-05T00:25:23.243Z,4.88
2023-05-05T00:28:26.077Z,4.77
2023-05-05T00:31:29.183Z,4.69
2023-05-05T00:34:32.058Z,4.59
2023-05-05T00:37:34.978Z,4.53
2023-05-05T00:40:38.317Z,4.48
2023-05-05T00:43:41.073Z,4.44
2023-05-05T00:46:44.112Z,4.40
2023-05-05T00:49:47.185Z,4.36
2023-05-05T00:52:51.069Z,4.32
2023-05-05T00:55:54.152Z,4.27
2023-05-05T00:58:56.982Z,4.23
2023-05-05T01:02:00.118Z,4.18
2023-05-05T01:05:04.327Z,4.14
2023-05-05T01:08:26.809Z,4.10
2023-05-05T01:11:38.917Z,4.06
2023-05-05T01:14:48.163Z,4.03
2023-05-05T01:17:58.802Z,4.03
2023-05-05T01:21:29.498Z,4.04
2023-05-05T01:25:02.335Z,4.06
2023-05-05T01:29:04.216Z,4.09
2023-05-05T01:32:11.763Z,4.18
2023-05-05T01:35:22.160Z,4.26
2023-05-05T01:38:32.518Z,4.35
2023-05-05T01:41:42.641Z,4.47
2023-05-05T01:44:47.680Z,4.55
2023-05-05T01:47:52.737Z,4.56
2023-05-05T01:50:56.115Z,4.55
2023-05-05T01:54:07.807Z,4.53
2023-05-05T01:57:12.932Z,4.51
2023-05-05T02:00:18.092Z,4.52
2023-05-05T02:03:22.967Z,4.54
2023-05-05T02:06:30.019Z,4.54
2023-05-05T02:09:34.127Z,4.51
2023-05-05T02:12:37.632Z,4.49
2023-05-05T02:15:42.154Z,4.47
2023-05-05T02:18:46.374Z,4.46
2023-05-05T02:21:49.218Z,4.43
2023-05-05T02:24:52.432Z,4.41
2023-05-05T02:27:59.709Z,4.40
2023-05-05T02:31:06.089Z,4.38
2023-05-05T02:34:09.318Z,4.33
2023-05-05T02:37:18.093Z,4.29
2023-05-05T02:40:24.540Z,4.24
2023-05-05T02:43:29.848Z,4.17
2023-05-05T02:46:32.831Z,4.10
2023-05-05T02:49:35.654Z,4.04
2023-05-05T02:52:38.632Z,3.98
2023-05-05T02:55:57.508Z,3.92
2023-05-05T02:59:09.123Z,3.85
2023-05-05T03:02:20.745Z,3.78
2023-05-05T03:05:28.629Z,3.73
2023-05-05T03:08:43.132Z,3.68
2023-05-05T03:12:01.470Z,3.63
2023-05-05T03:15:09.377Z,3.59
2023-05-05T03:18:13.248Z,3.60
2023-05-05T03:21:16.611Z,3.63
2023-05-05T03:24:20.815Z,3.68
2023-05-05T03:27:23.633Z,3.77
2023-05-05T03:30:26.540Z,3.88
2023-05-05T03:33:29.330Z,4.01
2023-05-05T03:36:32.248Z,4.16
2023-05-05T03:39:35.022Z,4.37
2023-05-05T03:42:37.887Z,4.64
2023-05-05T03:45:40.761Z,4.97
2023-05-05T03:48:43.734Z,5.37
2023-05-05T03:51:47.389Z,5.86
2023-05-05T03:54:50.286Z,6.48
2023-05-05T03:57:53.222Z,7.14
2023-05-05T04:00:56.005Z,7.89
2023-05-05T04:03:58.739Z,8.71
2023-05-05T04:07:01.760Z,9.31
2023-05-05T04:10:04.930Z,9.97
2023-05-05T04:13:08.876Z,10.75
2023-05-05T04:16:12.197Z,11.54
2023-05-05T04:19:15.041Z,12.05
2023-05-05T04:22:17.818Z,12.34
2023-05-05T04:25:20.629Z,12.75
2023-05-05T04:28:23.388Z,12.87
2023-05-05T04:31:26.173Z,12.93
2023-05-05T04:34:29.121Z,13.10
2023-05-05T04:37:32.069Z,13.08
2023-05-05T04:40:38.832Z,12.93
2023-05-05T04:43:41.568Z,12.58
2023-05-05T04:46:44.523Z,12.29
2023-05-05T04:49:47.381Z,11.99
2023-05-05T04:52:52.559Z,11.57
2023-05-05T04:55:55.696Z,11.22
2023-05-05T04:58:58.623Z,11.02
2023-05-05T05:02:01.745Z,10.95
2023-05-05T05:05:04.886Z,10.95
2023-05-05T05:08:07.659Z,11.01
2023-05-05T05:11:10.643Z,11.14
2023-05-05T05:14:13.456Z,11.26
2023-05-05T05:17:16.454Z,11.39
2023-05-05T05:20:19.773Z,11.60
2023-05-05T05:23:22.509Z,11.88
2023-05-05T05:26:25.409Z,12.19
2023-05-05T05:29:28.260Z,12.57
2023-05-05T05:32:31.149Z,12.98
2023-05-05T05:35:33.930Z,13.22
2023-05-05T05:38:36.767Z,13.15
2023-05-05T05:41:39.543Z,13.10
2023-05-05T05:44:42.367Z,13.13
2023-05-05T05:47:45.225Z,13.22
2023-05-05T05:50:48.032Z,13.32
2023-05-05T05:53:51.968Z,13.42
2023-05-05T05:56:54.777Z,13.55
2023-05-05T05:59:59.688Z,13.82
2023-05-05T06:03:04.137Z,14.08
2023-05-05T06:06:07.630Z,14.33
2023-05-05T06:09:10.473Z,14.60
2023-05-05T06:12:13.212Z,14.94
2023-05-05T06:15:16.068Z,15.23
2023-05-05T06:18:18.994Z,15.49
2023-05-05T06:21:21.769Z,15.82
2023-05-05T06:24:24.595Z,16.17
2023-05-05T06:27:27.410Z,16.46
2023-05-05T06:30:30.173Z,16.75
2023-05-05T06:33:32.969Z,17.01
2023-05-05T06:36:35.838Z,17.27
2023-05-05T06:39:38.824Z,17.30
2023-05-05T06:42:41.800Z,17.27
2023-05-05T06:45:44.654Z,17.32
2023-05-05T06:48:47.671Z,17.51
2023-05-05T06:51:50.461Z,17.58
2023-05-05T06:54:53.350Z,17.69
2023-05-05T06:57:56.113Z,17.80
2023-05-05T07:00:59.180Z,17.91
2023-05-05T07:04:02.134Z,18.06
2023-05-05T07:07:04.941Z,18.10
2023-05-05T07:10:09.812Z,18.11
2023-05-05T07:13:15.634Z,18.14
2023-05-05T07:16:18.380Z,18.00
2023-05-05T07:19:21.153Z,17.73
2023-05-05T07:22:23.920Z,17.58
2023-05-05T07:25:26.816Z,17.64
2023-05-05T07:28:29.583Z,17.73
2023-05-05T07:31:32.439Z,17.74
2023-05-05T07:34:37.411Z,17.78
2023-05-05T07:37:40.286Z,17.81
2023-05-05T07:40:43.069Z,17.89
2023-05-05T07:43:46.196Z,17.95
2023-05-05T07:46:48.997Z,18.07
2023-05-05T07:49:52.104Z,18.23
2023-05-05T07:53:02.353Z,18.42
2023-05-05T07:56:13.245Z,18.57
2023-05-05T07:59:16.072Z,18.73
2023-05-05T08:02:19.099Z,18.71
2023-05-05T08:05:22.006Z,18.67
2023-05-05T08:08:25.205Z,18.48
2023-05-05T08:11:29.646Z,18.40
2023-05-05T08:14:33.193Z,18.40
2023-05-05T08:17:50.407Z,18.64
2023-05-05T08:20:54.772Z,18.80
2023-05-05T08:23:57.590Z,19.04
2023-05-05T08:27:00.863Z,19.34
2023-05-05T08:30:04.495Z,19.47
2023-05-05T08:33:07.369Z,19.26
2023-05-05T08:36:10.406Z,19.12
2023-05-05T08:39:13.274Z,19.17
2023-05-05T08:42:28.926Z,19.15
2023-05-05T08:45:38.572Z,19.19
2023-05-05T08:48:42.735Z,19.28
2023-05-05T08:51:46.747Z,19.15
2023-05-05T08:55:05.546Z,19.20
2023-05-05T08:58:09.955Z,19.14
2023-05-05T09:01:14.294Z,19.05
2023-05-05T09:04:19.195Z,18.87
2023-05-05T09:07:22.502Z,18.71
2023-05-05T09:10:26.578Z,18.68
2023-05-05T09:13:31.129Z,18.79
2023-05-05T09:16:34.054Z,18.82
2023-05-05T09:20:04.532Z,18.77
2023-05-05T09:23:14.525Z,18.82
2023-05-05T09:26:17.326Z,19.05
2023-05-05T09:29:21.565Z,19.26
2023-05-05T09:32:25.182Z,19.37
2023-05-05T09:35:28.658Z,19.46
2023-05-05T09:38:31.555Z,19.55
2023-05-05T09:41:39.354Z,19.62
2023-05-05T09:44:42.382Z,19.70
2023-05-05T09:47:49.182Z,19.91
2023-05-05T09:50:52.609Z,20.07
2023-05-05T09:53:55.419Z,20.17
2023-05-05T09:56:58.304Z,20.36
2023-05-05T10:00:02.665Z,20.52
2023-05-05T10:03:05.581Z,20.65
2023-05-05T10:06:08.408Z,20.69
2023-05-05T10:09:11.295Z,20.64
2023-05-05T10:12:14.157Z,20.79
2023-05-05T10:15:17.908Z,21.03
2023-05-05T10:18:28.743Z,21.19
2023-05-05T10:21:34.388Z,21.07
2023-05-05T10:24:47.122Z,20.59
2023-05-05T10:27:53.166Z,20.31
2023-05-05T10:30:58.519Z,20.28
2023-05-05T10:34:04.274Z,20.12
2023-05-05T10:37:07.826Z,19.76
2023-05-05T10:40:11.899Z,19.80
2023-05-05T10:43:15.245Z,19.64
2023-05-05T10:46:18.262Z,19.59
2023-05-05T10:49:39.972Z,19.47
2023-05-05T10:52:54.899Z,19.30
2023-05-05T10:56:10.540Z,19.08
2023-05-05T10:59:39.046Z,19.06
2023-05-05T11:02:42.055Z,19.07
2023-05-05T11:06:03.990Z,19.40
2023-05-05T11:09:29.247Z,19.49
2023-05-05T11:12:35.494Z,19.42
2023-05-05T11:15:39.810Z,19.46
2023-05-05T11:18:45.719Z,19.39
2023-05-05T11:22:01.749Z,19.32
2023-05-05T11:25:42.218Z,19.18
2023-05-05T11:29:14.403Z,19.18
2023-05-05T11:32:17.224Z,19.17
2023-05-05T11:35:20.187Z,18.99
2023-05-05T11:38:58.649Z,18.84
2023-05-05T11:42:24.617Z,18.71
2023-05-05T11:45:27.518Z,18.79
2023-05-05T11:48:30.329Z,18.86
2023-05-05T11:51:33.606Z,18.90
2023-05-05T11:54:38.455Z,19.02
2023-05-05T11:57:41.268Z,19.00
2023-05-05T12:00:44.105Z,19.13
2023-05-05T12:03:47.198Z,19.16
2023-05-05T12:06:50.300Z,19.06
2023-05-05T12:09:53.893Z,18.93
2023-05-05T12:12:56.761Z,18.92
2023-05-05T12:16:16.987Z,19.02
2023-05-05T12:19:19.919Z,19.16
2023-05-05T12:22:24.773Z,19.33
2023-05-05T12:25:35.740Z,19.44
2023-05-05T12:28:48.506Z,19.47
2023-05-05T12:31:51.652Z,19.29
2023-05-05T12:34:57.363Z,19.32
2023-05-05T12:38:00.563Z,19.40
2023-05-05T12:41:03.769Z,19.43
2023-05-05T12:44:06.827Z,19.47
2023-05-05T12:47:11.251Z,19.47
2023-05-05T12:50:14.083Z,19.43
2023-05-05T12:53:24.333Z,19.42
2023-05-05T12:56:44.255Z,19.48
2023-05-05T12:59:47.297Z,19.55
2023-05-05T13:02:50.165Z,19.65
2023-05-05T13:05:52.982Z,19.67
2023-05-05T13:08:57.219Z,19.70
2023-05-05T13:12:00.234Z,19.73
2023-05-05T13:15:03.585Z,19.65
2023-05-05T13:18:06.574Z,19.63
2023-05-05T13:21:09.444Z,19.69
2023-05-05T13:24:28.142Z,19.72
2023-05-05T13:27:35.318Z,19.69
2023-05-05T13:30:38.305Z,19.67
2023-05-05T13:33:41.782Z,19.67
2023-05-05T13:36:44.764Z,19.72
2023-05-05T13:39:47.519Z,19.76
2023-05-05T13:42:50.340Z,19.75
2023-05-05T13:46:05.561Z,19.78
2023-05-05T13:49:11.980Z,19.85
2023-05-05T13:52:15.080Z,19.91
2023-05-05T13:55:18.187Z,19.88
2023-05-05T13:58:21.140Z,19.80
2023-05-05T14:01:24.079Z,19.87
2023-05-05T14:04:26.898Z,19.94
2023-05-05T14:07:29.708Z,19.98
2023-05-05T14:10:32.480Z,20.03
2023-05-05T14:13:35.226Z,20.07
2023-05-05T14:16:38.007Z,20.10
2023-05-05T14:19:40.986Z,20.09
2023-05-05T14:22:43.914Z,20.16
2023-05-05T14:25:46.845Z,20.31
2023-05-05T14:28:50.156Z,20.38
2023-05-05T14:31:53.098Z,20.44
2023-05-05T14:34:56.467Z,20.53
2023-05-05T14:37:59.406Z,20.61
2023-05-05T14:41:02.163Z,20.67
2023-05-05T14:44:05.107Z,20.75
2023-05-05T14:47:07.957Z,20.83
2023-05-05T14:50:11.127Z,20.87
2023-05-05T14:53:13.867Z,20.93
2023-05-05T14:56:17.240Z,20.93
2023-05-05T14:59:20.110Z,20.90
2023-05-05T15:02:22.969Z,20.87
2023-05-05T15:05:25.919Z,20.83
2023-05-05T15:08:28.829Z,20.81
2023-05-05T15:11:31.561Z,20.90
2023-05-05T15:14:34.401Z,20.95
2023-05-05T15:17:38.869Z,20.95
2023-05-05T15:20:42.054Z,20.98
2023-05-05T15:23:45.120Z,21.02
2023-05-05T15:26:47.900Z,20.94
2023-05-05T15:29:50.687Z,20.92
2023-05-05T15:32:54.196Z,20.88
2023-05-05T15:35:57.125Z,20.99
2023-05-05T15:38:59.871Z,21.01
2023-05-05T15:42:05.752Z,21.00
2023-05-05T15:45:12.576Z,20.88
2023-05-05T15:48:15.446Z,20.98
2023-05-05T15:51:18.389Z,20.99
2023-05-05T15:54:21.237Z,20.88
2023-05-05T15:57:24.060Z,20.95
2023-05-05T16:00:27.057Z,20.96
2023-05-05T16:03:29.825Z,21.01
2023-05-05T16:06:32.837Z,21.00
2023-05-05T16:09:35.762Z,20.95
2023-05-05T16:12:38.594Z,20.85
2023-05-05T16:15:41.380Z,20.78
2023-05-05T16:18:44.220Z,20.58
2023-05-05T16:21:47.100Z,20.35
2023-05-05T16:24:49.862Z,20.07
2023-05-05T16:27:53.841Z,19.83
2023-05-05T16:30:56.684Z,19.76
2023-05-05T16:34:00.233Z,19.73
2023-05-05T16:37:03.519Z,19.58
2023-05-05T16:40:06.895Z,19.42
2023-05-05T16:43:09.662Z,19.37
2023-05-05T16:46:12.658Z,19.35
2023-05-05T16:49:15.461Z,19.41
2023-05-05T16:52:18.818Z,19.37
2023-05-05T16:55:21.687Z,19.35
2023-05-05T16:58:24.571Z,19.30
2023-05-05T17:01:27.512Z,19.50
2023-05-05T17:04:30.391Z,19.88
2023-05-05T17:07:33.230Z,20.34
2023-05-05T17:10:36.379Z,20.48
2023-05-05T17:13:39.257Z,20.44
2023-05-05T17:16:42.258Z,20.44
2023-05-05T17:19:45.486Z,20.42
2023-05-05T17:22:48.327Z,20.56
2023-05-05T17:25:51.653Z,20.62
2023-05-05T17:28:54.402Z,20.49
2023-05-05T17:31:57.265Z,20.26
2023-05-05T17:35:00.005Z,19.84
2023-05-05T17:38:02.774Z,19.31
2023-05-05T17:41:06.507Z,18.71
2023-05-05T17:44:09.368Z,18.15
2023-05-05T17:47:12.140Z,17.65
2023-05-05T17:50:14.975Z,17.27
2023-05-05T17:53:17.855Z,16.88
2023-05-05T17:56:20.622Z,16.57
2023-05-05T17:59:23.524Z,16.26
2023-05-05T18:02:26.429Z,15.99
2023-05-05T18:05:30.427Z,15.73
2023-05-05T18:08:33.208Z,15.49
2023-05-05T18:11:35.996Z,15.28
2023-05-05T18:14:38.865Z,15.09
2023-05-05T18:17:41.651Z,14.94
2023-05-05T18:20:44.486Z,14.79
2023-05-05T18:23:47.424Z,14.60
2023-05-05T18:26:51.762Z,14.42
2023-05-05T18:29:55.322Z,14.26
2023-05-05T18:32:58.244Z,14.13
2023-05-05T18:36:03.338Z,14.01
2023-05-05T18:39:06.203Z,13.92
2023-05-05T18:42:08.998Z,13.80
2023-05-05T18:45:12.058Z,13.71
2023-05-05T18:48:14.845Z,13.61
2023-05-05T18:51:17.627Z,13.50
2023-05-05T18:54:22.094Z,13.41
2023-05-05T18:57:24.902Z,13.30
2023-05-05T19:00:27.684Z,13.23
2023-05-05T19:03:30.654Z,13.15
2023-05-05T19:06:33.426Z,13.07
2023-05-05T19:09:36.201Z,12.99
2023-05-05T19:12:39.099Z,12.93
2023-05-05T19:15:41.993Z,12.85
2023-05-05T19:18:44.867Z,12.75
2023-05-05T19:21:47.720Z,12.67
2023-05-05T19:24:50.707Z,12.60
2023-05-05T19:27:53.496Z,12.53
2023-05-05T19:30:56.314Z,12.46
2023-05-05T19:34:04.720Z,12.39
2023-05-05T19:37:07.574Z,12.32
2023-05-05T19:40:11.087Z,12.26
2023-05-05T19:43:14.443Z,12.17
2023-05-05T19:46:17.419Z,12.10
2023-05-05T19:49:20.262Z,12.09
2023-05-05T19:52:23.022Z,12.11
2023-05-05T19:55:25.879Z,12.21
2023-05-05T19:58:28.920Z,12.30
2023-05-05T20:01:33.173Z,12.37
2023-05-05T20:04:36.027Z,12.42
2023-05-05T20:07:38.889Z,12.44
2023-05-05T20:10:41.761Z,12.43
2023-05-05T20:13:44.674Z,12.41
2023-05-05T20:16:48.044Z,12.39
2023-05-05T20:19:50.964Z,12.34
2023-05-05T20:22:53.768Z,12.24
2023-05-05T20:25:56.822Z,12.13
2023-05-05T20:28:59.678Z,12.02
2023-05-05T20:32:02.468Z,11.90
2023-05-05T20:35:06.203Z,11.72
2023-05-05T20:38:09.858Z,11.53
2023-05-05T20:41:12.620Z,11.36
2023-05-05T20:44:15.666Z,11.21
2023-05-05T20:47:18.524Z,11.10
2023-05-05T20:50:21.478Z,10.99
2023-05-05T20:53:25.506Z,10.93
2023-05-05T20:56:28.529Z,10.81
2023-05-05T20:59:32.230Z,10.75
2023-05-05T21:02:35.176Z,10.71
2023-05-05T21:05:39.609Z,10.70
2023-05-05T21:08:42.400Z,10.68
2023-05-05T21:11:45.167Z,10.65
2023-05-05T21:14:47.958Z,10.61
2023-05-05T21:17:51.358Z,10.54
2023-05-05T21:20:54.217Z,10.44
2023-05-05T21:23:57.704Z,10.35
2023-05-05T21:27:00.610Z,10.25
2023-05-05T21:30:03.586Z,10.15
2023-05-05T21:33:06.438Z,10.03
2023-05-05T21:36:09.411Z,9.89
2023-05-05T21:39:12.201Z,9.76
2023-05-05T21:42:15.399Z,9.63
2023-05-05T21:45:18.226Z,9.51
2023-05-05T21:48:21.149Z,9.45
2023-05-05T21:51:23.989Z,9.37
2023-05-05T21:54:27.068Z,9.29
2023-05-05T21:57:30.460Z,9.22
2023-05-05T22:00:33.266Z,9.12
2023-05-05T22:03:36.645Z,9.00
2023-05-05T22:06:39.568Z,8.88
2023-05-05T22:09:43.172Z,8.76
2023-05-05T22:12:46.019Z,8.67
2023-05-05T22:15:49.038Z,8.59
2023-05-05T22:18:52.153Z,8.53
2023-05-05T22:21:54.983Z,8.46
2023-05-05T22:24:57.835Z,8.41
2023-05-05T22:28:00.682Z,8.38
2023-05-05T22:31:03.629Z,8.37
2023-05-05T22:34:06.620Z,8.35
2023-05-05T22:37:09.662Z,8.31
2023-05-05T22:40:13.031Z,8.26
2023-05-05T22:43:15.901Z,8.19
2023-05-05T22:46:18.728Z,8.14
2023-05-05T22:49:22.886Z,8.08
2023-05-05T22:52:28.292Z,8.02
2023-05-05T22:55:31.225Z,7.95
2023-05-05T22:58:34.255Z,7.88
2023-05-05T23:01:37.298Z,7.88
2023-05-05T23:04:40.318Z,7.91
2023-05-05T23:07:43.179Z,7.96
2023-05-05T23:10:46.072Z,8.01
2023-05-05T23:13:48.855Z,8.03
2023-05-05T23:16:51.724Z,7.99
2023-05-05T23:19:54.713Z,7.91
2023-05-05T23:22:57.432Z,7.79
2023-05-05T23:26:00.266Z,7.67
2023-05-05T23:29:03.258Z,7.57
2023-05-05T23:32:06.528Z,7.48
2023-05-05T23:35:09.965Z,7.41
2023-05-05T23:38:13.181Z,7.32
2023-05-05T23:41:15.982Z,7.26
2023-05-05T23:44:18.780Z,7.23
2023-05-05T23:47:21.608Z,7.23
2023-05-05T23:50:25.895Z,7.25
2023-05-05T23:53:28.703Z,7.28
2023-05-05T23:56:31.952Z,7.31
2023-05-05T23:59:34.890Z,7.31
